Time,TemperatureF,DewpointF,PressureIn,WindDirection,WindDirectionDegrees,WindSpeedMPH,WindSpeedGustMPH,Humidity,HourlyPrecipIn,Conditions,Clouds,dailyrainin,SoftwareType,DateUTC
2013-09-23 00:30:00,55.0,-99.9,29.66,WNW,292,10.0,12.0,-999,-99.99,,,-99.99,,2013-09-23 04:30:00,
2013-09-23 01:12:00,55.0,-99.9,29.66,WNW,292,10.0,12.0,-999,-99.99,,,-99.99,,2013-09-23 05:12:00,
2013-09-23 01:23:00,55.0,-99.9,29.66,WNW,292,10.0,12.0,-999,-99.99,,,-99.99,,2013-09-23 05:23:00,
2013-09-23 01:30:00,54.0,-99.9,29.67,WNW,287,9.0,11.0,-999,-99.99,,,-99.99,,2013-09-23 05:30:00,
2013-09-23 02:00:00,53.0,-99.9,29.68,WNW,296,7.0,10.0,-999,-99.99,,,-99.99,,2013-09-23 06:00:00,
2013-09-23 02:13:00,54.0,-99.9,29.67,WNW,287,9.0,11.0,-999,-99.99,,,-99.99,,2013-09-23 06:13:00,
2013-09-23 02:22:00,54.0,-99.9,29.67,WNW,287,9.0,11.0,-999,-99.99,,,-99.99,,2013-09-23 06:22:00,
2013-09-23 02:52:00,53.0,-99.9,29.68,WNW,296,7.0,10.0,-999,-99.99,,,-99.99,,2013-09-23 06:52:00,
2013-09-23 03:52:00,52.0,-99.9,29.69,WNW,289,8.0,10.0,-999,-99.99,,,-99.99,,2013-09-23 07:52:00,
2013-09-23 04:52:00,51.0,-99.9,29.69,WNW,303,14.0,18.0,-999,-99.99,,,-99.99,,2013-09-23 08:52:00,
2013-09-23 05:00:00,51.0,-99.9,29.70,NW,304,14.0,19.0,-999,-99.99,,,-99.99,,2013-09-23 09:00:00,
2013-09-23 05:53:00,51.0,-99.9,29.70,NW,304,14.0,19.0,-999,-99.99,,,-99.99,,2013-09-23 09:53:00,
2013-09-23 06:00:00,50.0,-99.9,29.72,NW,315,15.0,18.0,-999,-99.99,,,-99.99,,2013-09-23 10:00:00,
2013-09-23 06:53:00,50.0,-99.9,29.72,NW,315,15.0,18.0,-999,-99.99,,,-99.99,,2013-09-23 10:53:00,
2013-09-23 07:00:00,49.0,-99.9,29.75,NW,316,10.0,14.0,-999,-99.99,,,-99.99,,2013-09-23 11:00:00,
2013-09-23 07:52:00,49.0,-99.9,29.75,NW,316,10.0,14.0,-999,-99.99,,,-99.99,,2013-09-23 11:52:00,
2013-09-23 08:52:00,49.0,-99.9,29.76,NW,311,13.0,18.0,-999,-99.99,,,-99.99,,2013-09-23 12:52:00,
2013-09-23 09:30:00,51.0,-99.9,29.77,NW,319,19.0,23.0,-999,-99.99,,,-99.99,,2013-09-23 13:30:00,
2013-09-23 09:52:00,50.0,-99.9,29.77,NW,322,17.0,23.0,-999,-99.99,,,-99.99,,2013-09-23 13:52:00,
2013-09-23 10:12:00,51.0,-99.9,29.77,NW,319,19.0,23.0,-999,-99.99,,,-99.99,,2013-09-23 14:12:00,
2013-09-23 10:22:00,51.0,-99.9,29.77,NW,319,19.0,23.0,-999,-99.99,,,-99.99,,2013-09-23 14:22:00,
2013-09-23 10:52:00,51.0,-99.9,29.78,NW,317,18.0,23.0,-999,-99.99,,,-99.99,,2013-09-23 14:52:00,
2013-09-23 11:54:00,52.0,-99.9,29.78,NNW,333,18.0,23.0,-999,-99.99,,,-99.99,,2013-09-23 15:54:00,
2013-09-23 12:53:00,53.0,-99.9,29.77,NNW,336,15.0,19.0,-999,-99.99,,,-99.99,,2013-09-23 16:53:00,
2013-09-23 13:52:00,55.0,-99.9,-100.00,NW,323,15.0,21.0,-999,-99.99,,,-99.99,,2013-09-23 17:52:00,
2013-09-23 14:52:00,55.0,-99.9,-100.00,NW,312,20.0,24.0,-999,-99.99,,,-99.99,,2013-09-23 18:52:00,
2013-09-23 15:30:00,55.0,-99.9,29.77,NNW,330,19.0,26.0,-999,-99.99,,,-99.99,,2013-09-23 19:30:00,
2013-09-23 15:53:00,55.0,-99.9,29.78,NW,319,18.0,23.0,-999,-99.99,,,-99.99,,2013-09-23 19:53:00,
2013-09-23 16:10:00,55.0,-99.9,29.78,NW,310,19.0,24.0,-999,-99.99,,,-99.99,,2013-09-23 20:10:00,
2013-09-23 16:12:00,55.0,-99.9,29.77,NNW,330,19.0,26.0,-999,-99.99,,,-99.99,,2013-09-23 20:12:00,
2013-09-23 16:22:00,55.0,-99.9,29.77,NNW,330,19.0,26.0,-999,-99.99,,,-99.99,,2013-09-23 20:22:00,
2013-09-23 16:52:00,55.0,-99.9,29.78,NW,310,19.0,24.0,-999,-99.99,,,-99.99,,2013-09-23 20:52:00,
2013-09-23 18:30:00,54.0,-99.9,29.83,NNW,334,22.0,27.0,-999,-99.99,,,-99.99,,2013-09-23 22:30:00,
2013-09-23 18:54:00,54.0,-99.9,29.83,NW,314,17.0,20.0,-999,-99.99,,,-99.99,,2013-09-23 22:54:00,
2013-09-23 19:00:00,54.0,-99.9,29.85,NNW,333,17.0,22.0,-999,-99.99,,,-99.99,,2013-09-23 23:00:00,
2013-09-23 19:12:00,54.0,-99.9,29.83,NNW,334,22.0,27.0,-999,-99.99,,,-99.99,,2013-09-23 23:12:00,
2013-09-23 19:23:00,54.0,-99.9,29.83,NNW,334,22.0,27.0,-999,-99.99,,,-99.99,,2013-09-23 23:23:00,
2013-09-23 19:54:00,54.0,-99.9,29.85,NNW,333,17.0,22.0,-999,-99.99,,,-99.99,,2013-09-23 23:54:00,
2013-09-23 21:10:00,52.0,-99.9,29.84,WNW,286,14.0,17.0,-999,-99.99,,,-99.99,,2013-09-24 01:10:00,
2013-09-23 22:00:00,52.0,-99.9,29.84,WNW,292,16.0,18.0,-999,-99.99,,,-99.99,,2013-09-24 02:00:00,
2013-09-23 22:52:00,52.0,-99.9,29.84,WNW,292,16.0,18.0,-999,-99.99,,,-99.99,,2013-09-24 02:52:00,
2013-09-23 23:30:00,51.0,-99.9,29.84,WNW,284,12.0,14.0,-999,-99.99,,,-99.99,,2013-09-24 03:30:00,